Johnson Park, California
Current Conditions -  °F | °C
As of 11:53 PM on Monday 26 Jan 2015 (Local Time) from KRDD Reporting Station
Clear Clear  
Wind Chill: 47°   Ceiling: Unl
Heat Index: 49°   Visibility: 10mi
Dew Point: 46°   Wind: 5mph
Humidity: 90%   Direction: 320°NW
Pressure: 30.02"   Gusts: NA
Location:  40.9066°N, 121.657°W
Report Text: KRDD 270753Z 32004KT 10SM CLR 09/08 A3002 RMK AO2 SLP165 T00940078 402000028
Loading
Personal Weather Stations






























Interactive Weather Map New forecast layout! Learn more

10-Day Weather Forecast

Advertisements
Track Severe Weather on mobile